Time;durP1;ratioP1;P1;durP2;ratioP2;P2;SDS_P1;SDS_P2;PMS_P1;PMS_P2;Temp;Humidity;BMP_temperature;BMP_pressure;BME280_temperature;BME280_humidity;BME280_pressure;Samples;Min_cycle;Max_cycle;Signal;HPM_P1;HPM_P2
2021/05/24 00:00:24;;;;;;;5.13;2.70;;;;;;;10.53;66.18;100411.17;126711;1098;101504;-80
2021/05/24 00:15:42;;;;;;;3.60;2.50;;;;;;;10.42;66.67;100433.27;125117;1111;103027;-80
2021/05/24 00:18:30;;;;;;;3.40;2.60;;;;;;;10.43;66.97;100434.98;125113;1110;100725;-81
2021/05/24 00:21:19;;;;;;;3.33;2.70;;;;;;;10.43;67.08;100437.58;126053;1107;103816;-81
2021/05/24 00:24:08;;;;;;;3.77;2.33;;;;;;;10.44;67.11;100437.53;125993;1107;104058;-80
2021/05/24 00:26:56;;;;;;;4.80;2.45;;;;;;;10.46;67.01;100434.88;126011;1108;102960;-80
2021/05/24 00:29:47;;;;;;;3.70;2.50;;;;;;;10.47;67.07;100437.44;125989;1108;102994;-80
2021/05/24 00:32:35;;;;;;;5.63;2.90;;;;;;;10.48;66.99;100433.94;125878;1108;103141;-81
2021/05/24 00:35:23;;;;;;;4.67;2.43;;;;;;;10.49;67.16;100435.64;125944;1107;102976;-80
2021/05/24 00:38:12;;;;;;;5.03;3.00;;;;;;;10.44;66.76;100447.11;125946;1108;104334;-82
2021/05/24 00:41:00;;;;;;;3.87;3.13;;;;;;;10.40;67.11;100451.53;126002;1107;102994;-80
2021/05/24 00:43:48;;;;;;;4.60;3.07;;;;;;;10.38;67.33;100452.48;125890;1102;103172;-80
2021/05/24 00:46:37;;;;;;;4.47;2.77;;;;;;;10.33;67.49;100463.05;126115;1104;103198;-80
2021/05/24 00:49:28;;;;;;;5.57;3.40;;;;;;;10.29;67.49;100459.67;126364;1096;102993;-80
2021/05/24 00:52:16;;;;;;;3.23;2.90;;;;;;;10.26;67.56;100454.55;126601;1098;103069;-80
2021/05/24 00:55:10;;;;;;;3.93;2.90;;;;;;;10.21;67.42;100464.22;126704;1098;102766;-80
2021/05/24 00:57:57;;;;;;;4.07;2.63;;;;;;;10.15;67.74;100464.36;126687;1098;101344;-80
2021/05/24 01:00:48;;;;;;;5.03;2.70;;;;;;;10.07;67.51;100466.34;126557;1098;102969;-80
2021/05/24 01:03:36;;;;;;;4.97;2.90;;;;;;;10.02;68.00;100465.58;126694;1093;102750;-80
2021/05/24 01:06:24;;;;;;;4.27;3.00;;;;;;;9.96;67.61;100470.96;126638;1098;102923;-80
2021/05/24 01:09:13;;;;;;;4.30;3.47;;;;;;;9.92;68.11;100477.16;126670;1098;102949;-80
2021/05/24 01:12:02;;;;;;;6.77;3.20;;;;;;;9.88;68.03;100478.13;126754;1098;103462;-81
2021/05/24 01:14:50;;;;;;;3.20;2.80;;;;;;;9.82;68.20;100473.06;126609;1098;103062;-80
2021/05/24 01:17:38;;;;;;;4.23;2.90;;;;;;;9.74;68.17;100475.88;126530;1101;103165;-80
2021/05/24 01:20:28;;;;;;;5.47;3.30;;;;;;;9.68;68.56;100479.45;126628;1098;102757;-80
2021/05/24 01:23:17;;;;;;;4.13;3.13;;;;;;;9.64;68.61;100479.58;126722;1098;102958;-81
2021/05/24 01:26:07;;;;;;;4.50;3.10;;;;;;;9.58;68.62;100491.02;126697;1098;103065;-80
2021/05/24 01:28:56;;;;;;;7.13;3.20;;;;;;;9.54;69.03;100489.38;126692;1098;103048;-80
2021/05/24 01:31:43;;;;;;;4.07;3.07;;;;;;;9.51;68.99;100493.78;126683;1098;103115;-80
2021/05/24 01:34:34;;;;;;;5.00;3.57;;;;;;;9.49;69.21;100496.42;126827;1098;103024;-80
2021/05/24 01:37:22;;;;;;;5.40;3.80;;;;;;;9.44;69.33;100498.29;126619;1098;102930;-80
2021/05/24 01:40:10;;;;;;;;;;;;;;;9.37;69.36;100491.52;126613;1098;102987;-80
2021/05/24 01:43:00;;;;;;;4.40;3.40;;;;;;;9.30;69.58;100496.00;126632;1101;102958;-80
2021/05/24 01:45:50;;;;;;;6.30;4.00;;;;;;;9.27;70.04;100492.61;126466;1098;104325;-80
2021/05/24 01:48:38;;;;;;;3.77;3.37;;;;;;;9.24;70.02;100500.50;126525;1100;103048;-80
2021/05/24 01:51:26;;;;;;;6.17;4.07;;;;;;;9.21;70.10;100495.37;126490;1101;103039;-80
2021/05/24 01:54:15;;;;;;;4.63;3.97;;;;;;;9.18;70.08;100492.84;126494;1093;102939;-80
2021/05/24 01:57:03;;;;;;;4.97;4.00;;;;;;;9.16;70.36;100492.02;126574;1101;102991;-80
2021/05/24 01:59:51;;;;;;;4.87;3.90;;;;;;;9.13;70.71;100487.72;126596;1100;102976;-81
2021/05/24 02:02:41;;;;;;;6.07;4.20;;;;;;;9.11;70.70;100483.44;126664;1100;101047;-80
2021/05/24 02:05:29;;;;;;;5.60;4.23;;;;;;;9.09;70.74;100486.94;126509;1101;102934;-80
2021/05/24 02:08:17;;;;;;;5.47;4.10;;;;;;;9.07;70.90;100498.27;126495;1093;102939;-80
2021/05/24 02:11:05;;;;;;;6.27;4.13;;;;;;;9.06;70.71;100505.22;126498;1101;102953;-80
2021/05/24 02:13:52;;;;;;;6.47;4.37;;;;;;;9.04;70.72;100499.20;126456;1101;102920;-80
2021/05/24 02:16:45;;;;;;;5.73;4.57;;;;;;;9.04;70.82;100498.34;126539;1101;102943;-80
2021/05/24 02:19:36;;;;;;;6.90;4.60;;;;;;;9.02;71.02;100505.33;126490;1101;102994;-81
2021/05/24 02:22:24;;;;;;;7.83;4.30;;;;;;;9.00;70.99;100501.91;126612;1101;101916;-80
2021/05/24 02:25:12;;;;;;;6.50;4.73;;;;;;;8.99;70.80;100505.40;126557;1101;103101;-80
2021/05/24 02:28:01;;;;;;;7.27;4.40;;;;;;;8.97;71.02;100501.94;126498;1093;103103;-81
2021/05/24 02:30:50;;;;;;;9.20;4.90;;;;;;;8.96;71.35;100505.44;126598;1093;102943;-80
2021/05/24 02:33:38;;;;;;;5.67;4.83;;;;;;;8.94;71.07;100508.08;126584;1101;101728;-80
2021/05/24 02:36:27;;;;;;;7.73;4.87;;;;;;;8.94;71.30;100520.23;126522;1101;102955;-79
2021/05/24 02:39:14;;;;;;;7.07;4.97;;;;;;;8.92;71.32;100522.86;126514;1094;102901;-80
2021/05/24 02:42:03;;;;;;;6.03;4.67;;;;;;;8.90;71.58;100518.59;126653;1101;101929;-79
2021/05/24 02:44:50;;;;;;;7.63;4.77;;;;;;;8.89;71.69;100519.47;126518;1101;103011;-80
2021/05/24 02:47:39;;;;;;;5.77;4.97;;;;;;;8.87;71.88;100522.11;126524;1098;102969;-80
2021/05/24 02:50:29;;;;;;;7.17;4.87;;;;;;;8.89;71.66;100524.67;126650;1093;102937;-80
2021/05/24 02:53:16;;;;;;;8.37;5.37;;;;;;;8.89;71.57;100517.73;126742;1099;103075;-80
2021/05/24 02:56:05;;;;;;;6.93;5.47;;;;;;;8.92;71.59;100530.66;126708;1098;103199;-80
2021/05/24 02:58:52;;;;;;;7.13;4.53;;;;;;;8.94;71.88;100544.49;126573;1098;102981;-79
2021/05/24 03:01:40;;;;;;;6.43;5.23;;;;;;;8.94;71.56;100552.30;126601;1098;102914;-79
2021/05/24 03:04:30;;;;;;;6.35;4.95;;;;;;;8.93;71.47;100553.19;126908;1098;102936;-80
2021/05/24 03:07:18;;;;;;;6.53;5.20;;;;;;;8.93;71.90;100552.33;126700;1098;103057;-80
2021/05/24 03:10:05;;;;;;;;;;;;;;;8.97;72.14;100546.17;126575;1098;102824;-79
2021/05/24 03:12:55;;;;;;;9.30;5.13;;;;;;;8.94;71.90;100549.70;126721;1098;103055;-80
2021/05/24 03:15:42;;;;;;;7.67;4.93;;;;;;;8.95;71.63;100554.01;126777;1093;103411;-80
2021/05/24 03:18:30;;;;;;;8.17;5.70;;;;;;;8.99;72.03;100557.43;126533;1100;102998;-79
2021/05/24 03:21:17;;;;;;;;;;;;;;;9.04;71.82;100552.98;126619;1098;102942;-80
2021/05/24 03:24:06;;;;;;;8.13;5.73;;;;;;;9.06;71.85;100559.00;126540;1098;103139;-79
2021/05/24 03:26:54;;;;;;;8.70;5.55;;;;;;;9.10;71.59;100571.05;126577;1093;103068;-80
2021/05/24 03:29:42;;;;;;;7.60;5.80;;;;;;;9.14;71.62;100570.09;126660;1098;103413;-80
2021/05/24 03:32:29;;;;;;;;;;;;;;;9.18;71.97;100578.72;126728;1098;102994;-80
2021/05/24 03:35:17;;;;;;;7.90;6.20;;;;;;;9.22;71.72;100573.41;126664;1098;103026;-80
2021/05/24 03:38:05;;;;;;;7.17;5.50;;;;;;;9.27;71.80;100573.30;126727;1098;102943;-80
2021/05/24 03:40:52;;;;;;;11.00;5.67;;;;;;;9.30;71.28;100578.44;126561;1099;103260;-80
2021/05/24 03:43:44;;;;;;;8.20;5.67;;;;;;;9.34;71.30;100580.11;126759;1093;102959;-80
2021/05/24 03:46:31;;;;;;;6.93;5.30;;;;;;;9.39;71.48;100592.13;126532;1098;102944;-80
2021/05/24 03:49:19;;;;;;;7.35;5.50;;;;;;;9.46;71.39;100599.78;126719;1101;103098;-80
2021/05/24 03:52:07;;;;;;;8.00;5.37;;;;;;;9.49;71.40;100597.97;126639;1100;102423;-80
2021/05/24 03:54:55;;;;;;;;;;;;;;;9.55;71.19;100600.45;126547;1101;103091;-80
2021/05/24 03:57:43;;;;;;;7.60;4.77;;;;;;;9.56;71.25;100609.98;126615;1100;102943;-81
2021/05/24 04:00:30;;;;;;;8.03;5.57;;;;;;;9.61;71.15;100613.33;126577;1100;102951;-81
2021/05/24 04:03:18;;;;;;;6.53;5.17;;;;;;;9.66;70.94;100610.61;126500;1100;103489;-81
2021/05/24 04:06:08;;;;;;;6.40;5.53;;;;;;;9.71;70.89;100610.53;126551;1099;103055;-81
2021/05/24 04:08:55;;;;;;;7.13;5.40;;;;;;;9.78;70.70;100615.55;126660;1101;102981;-80
2021/05/24 04:11:43;;;;;;;6.00;5.20;;;;;;;9.82;70.82;100613.73;126617;1093;102849;-80
2021/05/24 04:14:33;;;;;;;7.33;5.33;;;;;;;9.83;70.53;100618.90;126544;1101;100981;-80
2021/05/24 04:17:22;;;;;;;8.30;5.23;;;;;;;9.91;70.79;100618.73;126628;1101;103070;-80
2021/05/24 04:20:13;;;;;;;8.03;5.57;;;;;;;9.95;70.62;100613.41;126495;1100;102932;-79
2021/05/24 04:23:02;;;;;;;8.57;5.10;;;;;;;10.04;70.94;100612.31;126457;1101;102949;-80
2021/05/24 04:25:49;;;;;;;8.80;5.60;;;;;;;10.13;70.76;100624.29;126490;1093;103255;-80
2021/05/24 04:28:37;;;;;;;7.13;5.27;;;;;;;10.19;70.54;100630.20;126479;1093;103034;-80
2021/05/24 04:31:25;;;;;;;11.63;5.23;;;;;;;10.26;70.45;100631.81;126459;1101;102990;-79
2021/05/24 04:34:13;;;;;;;7.25;5.00;;;;;;;10.34;70.51;100634.22;126501;1100;102953;-79
2021/05/24 04:37:00;;;;;;;7.17;4.93;;;;;;;10.44;70.15;100630.50;126646;1101;103129;-80
2021/05/24 04:39:48;;;;;;;8.90;5.07;;;;;;;10.54;70.00;100631.09;126495;1101;103473;-80
2021/05/24 04:42:36;;;;;;;9.53;5.50;;;;;;;10.65;69.91;100634.30;126514;1101;102923;-80
2021/05/24 04:45:25;;;;;;;8.50;5.33;;;;;;;10.81;69.75;100634.75;126404;1101;103056;-79
2021/05/24 04:48:12;;;;;;;9.73;5.43;;;;;;;10.92;69.42;100631.83;126564;1098;103025;-80
2021/05/24 04:51:05;;;;;;;7.30;5.33;;;;;;;11.02;69.33;100631.55;126775;1098;102933;-80
2021/05/24 04:53:53;;;;;;;7.07;5.20;;;;;;;11.15;68.99;100635.53;126578;1098;103062;-80
2021/05/24 04:56:40;;;;;;;7.70;5.10;;;;;;;11.27;68.91;100634.31;126581;1093;102943;-80
2021/05/24 04:59:28;;;;;;;8.10;4.53;;;;;;;11.40;68.71;100638.28;126570;1098;102991;-80
2021/05/24 05:02:16;;;;;;;;;;;;;;;11.55;68.71;100628.29;126770;1098;102933;-80
2021/05/24 05:05:09;;;;;;;6.60;4.93;;;;;;;11.79;68.45;100635.41;126568;1098;103078;-80
2021/05/24 05:07:57;;;;;;;9.63;5.23;;;;;;;12.09;68.29;100644.05;126532;1100;102975;-80
2021/05/24 05:10:46;;;;;;;7.20;4.70;;;;;;;12.37;67.76;100636.14;126673;1098;103088;-81
2021/05/24 05:13:34;;;;;;;7.10;4.63;;;;;;;12.74;67.44;100629.66;126755;1092;102946;-80
2021/05/24 05:16:21;;;;;;;;;;;;;;;13.11;66.60;100627.47;126548;1099;102946;-80
2021/05/24 05:19:09;;;;;;;5.97;4.13;;;;;;;13.45;66.08;100628.84;126473;1101;103464;-80
2021/05/24 05:21:57;;;;;;;9.20;4.70;;;;;;;13.79;65.63;100626.63;126681;1098;102946;-79
2021/05/24 05:24:45;;;;;;;5.87;4.33;;;;;;;14.10;64.36;100625.41;126564;1098;103130;-80
2021/05/24 05:27:33;;;;;;;9.50;4.40;;;;;;;14.37;63.90;100628.69;126519;1098;103070;-80
2021/05/24 05:30:22;;;;;;;5.90;4.17;;;;;;;14.87;63.73;100625.69;126582;1098;102975;-80
2021/05/24 05:33:09;;;;;;;12.37;8.10;;;;;;;15.89;63.35;100628.91;126496;1098;103787;-81
2021/05/24 05:35:57;;;;;;;;;;;;;;;18.17;60.85;100625.70;126590;1099;102993;-80
2021/05/24 05:38:45;;;;;;;5.15;3.85;;;;;;;20.85;56.13;100615.83;126556;1099;102948;-79
2021/05/24 05:41:35;;;;;;;5.97;3.37;;;;;;;23.19;52.21;100605.58;126526;1098;103246;-79
2021/05/24 05:44:23;;;;;;;4.60;3.37;;;;;;;25.30;48.59;100594.97;126528;1098;103081;-80
2021/05/24 05:47:11;;;;;;;7.07;3.20;;;;;;;27.16;45.43;100590.34;126648;1098;102799;-80
2021/05/24 05:49:59;;;;;;;6.80;3.10;;;;;;;28.76;42.47;100579.70;126666;1098;102795;-80
2021/05/24 05:52:47;;;;;;;5.73;2.87;;;;;;;30.22;39.35;100589.31;126890;1098;102982;-80
2021/05/24 05:55:35;;;;;;;3.33;2.40;;;;;;;31.35;37.52;100590.12;126743;1093;103085;-81
2021/05/24 05:58:23;;;;;;;5.83;2.80;;;;;;;32.41;34.61;100590.30;126503;1098;103080;-79
2021/05/24 06:01:11;;;;;;;5.77;3.00;;;;;;;33.23;33.21;100579.48;126522;1099;102965;-79
2021/05/24 06:04:00;;;;;;;5.87;2.60;;;;;;;34.31;31.82;100581.30;126525;1099;102994;-79
2021/05/24 06:06:48;;;;;;;3.07;1.93;;;;;;;35.16;29.12;100586.48;126653;1098;104273;-78
2021/05/24 06:09:40;;;;;;;2.37;1.50;;;;;;;35.86;27.06;100598.89;126712;1098;103062;-79
2021/05/24 06:12:27;;;;;;;4.57;1.80;;;;;;;36.38;26.57;100600.02;126492;1098;103083;-79
2021/05/24 06:15:18;;;;;;;3.77;1.90;;;;;;;36.56;25.71;100608.37;126726;1098;102931;-79
2021/05/24 06:18:06;;;;;;;3.00;1.50;;;;;;;37.05;24.56;100612.50;126501;1098;102925;-79
2021/05/24 06:20:55;;;;;;;4.00;1.70;;;;;;;37.33;23.68;100609.48;126530;1098;102945;-80
2021/05/24 06:23:45;;;;;;;6.83;3.10;;;;;;;37.52;23.35;100607.73;126490;1098;103154;-79
2021/05/24 06:26:35;;;;;;;4.77;1.83;;;;;;;37.71;22.27;100606.81;126756;1093;102757;-80
2021/05/24 06:29:25;;;;;;;5.70;1.50;;;;;;;37.90;21.79;100604.22;126715;1098;103376;-79
2021/05/24 06:32:13;;;;;;;4.40;1.90;;;;;;;38.13;21.57;100604.46;126706;1093;103033;-79
2021/05/24 06:35:00;;;;;;;5.73;1.83;;;;;;;38.28;20.67;100606.89;126549;1093;103062;-79
2021/05/24 06:37:48;;;;;;;3.43;1.90;;;;;;;38.04;20.01;100616.66;126503;1093;102952;-79
2021/05/24 06:40:36;;;;;;;3.67;1.67;;;;;;;37.87;18.93;100615.52;126518;1098;103056;-79
2021/05/24 06:43:24;;;;;;;4.83;1.67;;;;;;;37.52;19.77;100607.73;126885;1092;103004;-80
2021/05/24 06:46:12;;;;;;;4.27;1.53;;;;;;;37.56;19.33;100608.15;126519;1093;102927;-80
2021/05/24 06:49:00;;;;;;;2.00;1.10;;;;;;;37.37;18.71;100612.64;126569;1098;100590;-80
2021/05/24 06:51:49;;;;;;;2.10;1.20;;;;;;;36.85;18.77;100617.16;126558;1098;102955;-80
2021/05/24 06:54:37;;;;;;;1.20;0.80;;;;;;;36.76;18.68;100607.50;126511;1094;103155;-80
2021/05/24 06:57:26;;;;;;;2.43;0.90;;;;;;;36.74;18.52;100620.47;126700;1098;102968;-80
2021/05/24 07:00:15;;;;;;;3.47;1.50;;;;;;;36.86;19.20;100613.38;126548;1098;103019;-80
2021/05/24 07:03:04;;;;;;;2.77;1.20;;;;;;;36.47;18.43;100628.66;126725;1098;102934;-79
2021/05/24 07:05:52;;;;;;;6.40;1.93;;;;;;;36.01;18.20;100620.44;126629;1098;103048;-81
2021/05/24 07:08:40;;;;;;;2.53;1.13;;;;;;;35.54;17.53;100613.16;126592;1098;103021;-81
2021/05/24 07:11:28;;;;;;;2.03;1.00;;;;;;;35.50;17.52;100620.05;126702;1098;102926;-80
2021/05/24 07:14:17;;;;;;;1.73;0.80;;;;;;;35.34;17.83;100635.59;126487;1099;103033;-80
2021/05/24 07:17:05;;;;;;;2.67;1.50;;;;;;;34.97;16.81;100630.59;126773;1098;102920;-80
2021/05/24 07:19:53;;;;;;;2.23;1.10;;;;;;;34.59;18.89;100640.92;126831;1093;103030;-80
2021/05/24 07:22:42;;;;;;;2.17;1.03;;;;;;;34.25;18.87;100642.47;126630;1098;102755;-80
2021/05/24 07:25:29;;;;;;;2.90;1.35;;;;;;;34.17;18.53;100648.86;126629;1098;103032;-80
2021/05/24 07:28:17;;;;;;;3.13;1.10;;;;;;;34.04;18.79;100653.30;126858;1098;102931;-80
2021/05/24 07:31:06;;;;;;;3.27;1.70;;;;;;;33.75;17.99;100654.17;126631;1093;102929;-81
2021/05/24 07:33:54;;;;;;;7.93;1.37;;;;;;;33.45;18.95;100654.25;126560;1098;102921;-81
2021/05/24 07:36:42;;;;;;;1.70;0.90;;;;;;;33.34;19.39;100650.14;126575;1100;103209;-80
2021/05/24 07:39:31;;;;;;;2.40;0.77;;;;;;;33.45;19.47;100650.70;126432;1093;103080;-78
2021/05/24 07:42:19;;;;;;;1.20;0.90;;;;;;;33.23;18.83;100658.70;126465;1101;102940;-83
2021/05/24 07:45:09;;;;;;;3.23;1.13;;;;;;;33.29;19.50;100659.81;126573;1093;103013;-81
2021/05/24 07:47:57;;;;;;;4.27;1.20;;;;;;;33.56;18.68;100675.38;126609;1098;102944;-82
2021/05/24 07:50:45;;;;;;;1.57;0.80;;;;;;;33.48;18.57;100671.95;126490;1099;103083;-79
2021/05/24 07:53:33;;;;;;;2.33;1.07;;;;;;;33.28;19.17;100674.36;126529;1098;102928;-82
2021/05/24 07:56:23;;;;;;;2.30;0.70;;;;;;;32.80;18.15;100687.34;126646;1098;101837;-81
2021/05/24 07:59:12;;;;;;;1.07;0.80;;;;;;;32.52;19.00;100672.73;126586;1098;102993;-82
2021/05/24 08:02:03;;;;;;;1.67;1.10;;;;;;;32.09;19.05;100666.92;126616;1098;102159;-82
2021/05/24 08:04:51;;;;;;;2.43;0.93;;;;;;;31.56;19.20;100661.28;126570;1098;103155;-84
2021/05/24 08:08:08;;;;;;;1.10;0.90;;;;;;;30.68;20.38;100676.62;126579;1098;101648;-85
2021/05/24 08:11:16;;;;;;;1.50;0.87;;;;;;;30.41;21.25;100667.01;126600;1098;101782;-84
2021/05/24 08:14:21;;;;;;;4.43;1.10;;;;;;;30.26;20.58;100671.36;126714;1098;102856;-85
2021/05/24 08:17:16;;;;;;;1.17;0.70;;;;;;;29.96;21.07;100668.23;126588;1100;102242;-84
2021/05/24 08:20:21;;;;;;;1.50;0.73;;;;;;;30.32;22.23;100668.00;126649;1098;103024;-85
2021/05/24 08:23:10;;;;;;;3.47;1.00;;;;;;;30.55;21.28;100671.73;126711;1098;103006;-85
2021/05/24 08:26:08;;;;;;;1.47;0.83;;;;;;;30.34;20.72;100677.61;126599;1098;103081;-86
2021/05/24 08:29:28;;;;;;;;;;;;;;;;;;;;;
2021/05/24 08:32:44;;;;;;;3.13;1.67;;;;;;;27.30;23.33;100677.40;126644;1093;103023;-88
2021/05/24 08:36:08;;;;;;;3.37;1.57;;;;;;;26.11;24.82;100678.59;126629;1098;102726;-84
2021/05/24 08:39:39;;;;;;;2.40;1.03;;;;;;;24.97;26.04;100684.15;126642;1098;102927;-83
2021/05/24 08:42:44;;;;;;;2.40;0.90;;;;;;;24.23;27.58;100682.39;126277;1098;103062;-86
2021/05/24 08:46:02;;;;;;;;;;;;;;;;;;;;;
2021/05/24 08:49:20;;;;;;;2.23;1.03;;;;;;;25.64;26.87;100693.47;126537;1098;102938;-84
2021/05/24 08:52:26;;;;;;;3.00;1.20;;;;;;;25.86;26.39;100693.32;126560;1099;102936;-84
2021/05/24 08:55:59;;;;;;;6.73;3.93;;;;;;;26.41;25.91;100683.02;126563;1101;102929;-84
2021/05/24 08:59:07;;;;;;;2.17;1.20;;;;;;;27.29;25.08;100686.39;126461;1098;103641;-84
2021/05/24 09:02:22;;;;;;;3.13;1.30;;;;;;;27.45;24.87;100667.86;126527;1098;101384;-85
2021/05/24 09:05:37;;;;;;;;;;;;;;;;;;;;;
2021/05/24 09:08:45;;;;;;;2.50;1.35;;;;;;;27.31;23.26;100671.05;126519;1098;102943;-84
2021/05/24 09:11:57;;;;;;;1.23;0.90;;;;;;;27.18;23.19;100668.69;126589;1099;103058;-84
2021/05/24 09:15:15;;;;;;;;;;;;;;;26.63;23.80;100659.63;126570;1098;103042;-84
2021/05/24 09:18:20;;;;;;;2.77;1.10;;;;;;;25.58;25.04;100664.64;126465;1100;102998;-84
2021/05/24 09:21:30;;;;;;;2.10;1.60;;;;;;;24.73;25.63;100690.70;126496;1100;102779;-84
2021/05/24 09:24:48;;;;;;;3.87;1.57;;;;;;;23.61;27.76;100669.70;126210;1101;105959;-85
2021/05/24 09:27:40;;;;;;;4.67;1.57;;;;;;;23.40;28.19;100657.09;126211;1101;103036;-84
2021/05/24 09:30:41;;;;;;;3.00;1.47;;;;;;;23.47;27.86;100660.95;126228;1102;102955;-84
2021/05/24 09:33:47;;;;;;;2.77;1.33;;;;;;;23.39;28.13;100655.41;126088;1101;101148;-84
2021/05/24 09:37:06;;;;;;;1.87;1.67;;;;;;;23.17;28.35;100648.27;126112;1101;104299;-84
2021/05/24 09:40:02;;;;;;;4.30;1.73;;;;;;;23.10;29.14;100639.05;126284;1096;102042;-83
2021/05/24 09:42:51;;;;;;;2.53;1.50;;;;;;;23.19;30.03;100642.83;126203;1101;102937;-86
2021/05/24 09:45:40;;;;;;;0.90;0.90;;;;;;;22.73;29.04;100656.13;126184;1101;103142;-83
2021/05/24 09:48:32;;;;;;;3.93;2.23;;;;;;;22.20;30.14;100632.63;126528;1101;103040;-86
2021/05/24 09:51:23;;;;;;;1.70;1.17;;;;;;;22.42;30.24;100657.59;126170;1101;102946;-86
2021/05/24 09:54:13;;;;;;;2.90;1.00;;;;;;;22.47;30.24;100647.48;126180;1101;102934;-86
2021/05/24 09:57:08;;;;;;;2.53;1.10;;;;;;;22.68;30.42;100627.24;126269;1101;102867;-86
2021/05/24 10:00:17;;;;;;;5.20;1.30;;;;;;;23.20;30.06;100633.88;126170;1101;103214;-84
2021/05/24 10:03:15;;;;;;;2.97;1.30;;;;;;;23.19;29.41;100626.86;126497;1100;101375;-85
2021/05/24 10:06:04;;;;;;;1.50;1.10;;;;;;;23.01;29.41;100638.94;126539;1101;102991;-84
2021/05/24 10:09:05;;;;;;;2.40;1.30;;;;;;;22.68;30.19;100637.03;126499;1100;102946;-85
2021/05/24 10:11:55;;;;;;;2.53;1.00;;;;;;;21.99;30.56;100635.04;126456;1100;102941;-79
2021/05/24 10:14:43;;;;;;;2.87;1.50;;;;;;;22.13;31.32;100631.41;126594;1100;102894;-80
2021/05/24 10:17:31;;;;;;;2.13;1.17;;;;;;;22.39;30.98;100637.41;126536;1099;103000;-81
2021/05/24 10:20:20;;;;;;;1.43;0.90;;;;;;;22.73;30.48;100624.22;126291;1093;103004;-81
2021/05/24 10:23:09;;;;;;;2.60;0.90;;;;;;;22.67;30.34;100627.36;126581;1100;103164;-81
2021/05/24 10:26:01;;;;;;;1.47;1.07;;;;;;;22.70;30.50;100629.78;126478;1100;103117;-82
2021/05/24 10:28:53;;;;;;;1.87;0.70;;;;;;;22.89;29.79;100622.11;126630;1100;103547;-80
2021/05/24 10:31:43;;;;;;;1.87;1.00;;;;;;;22.65;29.89;100632.80;126554;1100;102901;-80
2021/05/24 10:34:38;;;;;;;1.80;0.80;;;;;;;22.40;30.43;100635.61;126459;1101;102404;-80
2021/05/24 10:37:41;;;;;;;11.80;1.63;;;;;;;22.36;30.27;100639.46;126592;1101;102924;-81
2021/05/24 10:40:44;;;;;;;1.10;0.77;;;;;;;22.30;29.98;100638.97;126620;1093;103198;-80
2021/05/24 10:43:46;;;;;;;1.43;0.80;;;;;;;22.24;30.36;100630.59;126446;1100;102970;-80
2021/05/24 10:46:37;;;;;;;6.40;1.20;;;;;;;22.15;30.02;100634.80;126532;1100;103099;-80
2021/05/24 10:49:26;;;;;;;3.23;1.17;;;;;;;21.96;29.96;100629.11;126490;1094;103062;-80
2021/05/24 10:52:15;;;;;;;3.47;1.23;;;;;;;21.93;30.65;100630.19;126502;1101;102916;-81
2021/05/24 10:55:27;;;;;;;3.37;1.50;;;;;;;21.75;31.10;100628.88;126596;1101;103077;-80
2021/05/24 10:58:20;;;;;;;3.83;1.27;;;;;;;21.55;31.55;100625.01;126387;1100;103016;-81
2021/05/24 11:01:12;;;;;;;5.77;1.47;;;;;;;21.55;31.34;100630.32;126594;1101;103111;-81
2021/05/24 11:04:11;;;;;;;3.00;1.70;;;;;;;21.61;32.20;100618.41;126520;1093;103004;-80
2021/05/24 11:07:23;;;;;;;2.63;1.17;;;;;;;21.62;30.88;100607.67;126462;1100;103034;-80
2021/05/24 11:10:17;;;;;;;3.70;1.37;;;;;;;21.60;31.61;100600.78;126599;1100;102991;-80
2021/05/24 11:13:12;;;;;;;2.57;0.70;;;;;;;21.56;31.28;100608.13;126505;1100;103005;-81
2021/05/24 11:16:11;;;;;;;2.10;1.05;;;;;;;21.60;31.42;100611.40;126502;1100;103402;-81
2021/05/24 11:19:08;;;;;;;3.17;0.90;;;;;;;21.45;31.54;100621.30;126562;1101;103008;-80
2021/05/24 11:22:31;;;;;;;2.43;0.90;;;;;;;21.38;32.19;100617.41;126504;1093;103182;-80
2021/05/24 11:28:36;;;;;;;1.58;1.08;;;;;;;21.51;32.55;100614.70;126538;1100;102977;-80
2021/05/24 11:31:36;;;;;;;1.20;1.10;;;;;;;21.53;32.20;100616.28;126649;1093;102931;-80
2021/05/24 11:34:35;;;;;;;4.97;1.30;;;;;;;21.40;32.35;100615.48;126477;1100;103024;-80
2021/05/24 11:37:44;;;;;;;2.80;1.20;;;;;;;21.21;32.75;100620.38;126562;1101;103062;-84
2021/05/24 11:40:32;;;;;;;1.50;1.40;;;;;;;21.10;32.85;100619.30;126518;1099;103075;-84
2021/05/24 11:43:21;;;;;;;1.17;1.03;;;;;;;21.09;33.05;100620.27;126515;1100;102933;-84
2021/05/24 11:46:12;;;;;;;2.90;0.90;;;;;;;20.79;32.78;100614.42;126530;1100;103094;-84
2021/05/24 11:49:00;;;;;;;2.90;1.17;;;;;;;20.64;32.94;100615.47;126555;1098;102925;-84
2021/05/24 11:51:48;;;;;;;1.80;0.90;;;;;;;20.57;33.09;100624.80;126506;1098;105045;-80
2021/05/24 11:54:38;;;;;;;2.80;0.93;;;;;;;20.43;33.45;100629.22;126645;1098;102996;-79
2021/05/24 11:57:32;;;;;;;2.53;1.00;;;;;;;20.23;33.83;100611.98;126629;1098;102973;-80
2021/05/24 12:00:24;;;;;;;1.10;1.00;;;;;;;20.12;34.08;100609.21;126598;1098;102924;-79
2021/05/24 12:03:12;;;;;;;3.47;1.00;;;;;;;19.98;34.18;100601.32;126601;1100;102966;-80
2021/05/24 12:06:00;;;;;;;2.20;1.00;;;;;;;19.88;34.66;100609.00;126602;1098;103174;-80
2021/05/24 12:08:49;;;;;;;1.30;0.90;;;;;;;19.77;34.83;100600.92;126540;1100;102969;-80
2021/05/24 12:11:53;;;;;;;2.90;1.10;;;;;;;19.85;34.99;100598.61;126545;1098;103983;-80
2021/05/24 12:14:47;;;;;;;1.10;0.80;;;;;;;19.83;35.10;100595.22;126637;1098;102997;-80
2021/05/24 12:17:36;;;;;;;3.23;1.03;;;;;;;19.70;34.94;100590.81;126549;1098;101454;-82
2021/05/24 12:20:23;;;;;;;1.67;1.20;;;;;;;19.63;35.22;100589.52;126559;1098;102931;-81
2021/05/24 12:23:13;;;;;;;2.03;1.00;;;;;;;19.50;35.29;100582.33;126599;1099;103023;-81
2021/05/24 12:26:15;;;;;;;2.47;1.00;;;;;;;19.47;35.53;100573.75;126489;1098;102923;-81
2021/05/24 12:29:09;;;;;;;2.23;1.23;;;;;;;19.47;35.92;100579.88;126848;1098;102930;-81
2021/05/24 12:32:00;;;;;;;0.90;0.80;;;;;;;19.45;35.84;100570.35;126666;1093;102961;-82
2021/05/24 12:34:48;;;;;;;0.80;0.80;;;;;;;19.52;36.16;100559.27;126620;1098;103136;-82
2021/05/24 12:37:38;;;;;;;4.13;1.07;;;;;;;19.62;35.67;100562.22;126606;1100;102998;-81
2021/05/24 12:40:26;;;;;;;1.17;0.90;;;;;;;19.68;35.54;100563.61;126646;1098;102926;-81
2021/05/24 12:43:15;;;;;;;3.40;1.30;;;;;;;19.83;35.50;100538.79;126605;1098;103050;-82
2021/05/24 12:46:04;;;;;;;1.90;0.97;;;;;;;20.02;35.58;100533.13;126524;1092;103435;-81
2021/05/24 12:48:58;;;;;;;1.87;1.20;;;;;;;20.18;35.11;100534.64;126587;1093;100956;-81
2021/05/24 12:52:01;;;;;;;3.57;0.93;;;;;;;20.22;35.42;100532.63;126702;1098;102940;-82
2021/05/24 12:54:57;;;;;;;2.40;1.10;;;;;;;20.23;34.70;100537.82;126827;1098;103055;-81
2021/05/24 12:57:47;;;;;;;1.00;0.90;;;;;;;20.13;34.71;100520.02;126587;1098;102924;-82
2021/05/24 13:00:47;;;;;;;1.17;0.67;;;;;;;20.17;34.96;100521.51;126480;1100;103004;-82
2021/05/24 13:03:44;;;;;;;1.90;1.10;;;;;;;20.24;35.06;100528.07;126437;1093;102921;-81
2021/05/24 13:06:55;;;;;;;6.03;1.03;;;;;;;20.18;34.85;100515.25;126595;1098;102966;-81
2021/05/24 13:09:46;;;;;;;1.57;1.13;;;;;;;20.26;34.85;100528.81;126567;1100;103049;-82
2021/05/24 13:12:39;;;;;;;1.47;0.93;;;;;;;20.28;34.77;100541.95;126548;1098;102992;-82
2021/05/24 13:15:47;;;;;;;2.80;0.90;;;;;;;20.18;34.76;100529.34;126579;1093;101523;-82
2021/05/24 13:18:59;;;;;;;1.20;0.83;;;;;;;20.16;34.97;100520.66;126479;1098;103001;-82
2021/05/24 13:31:45;;;;;;;2.70;1.00;;;;;;;20.17;34.75;100538.24;126450;1096;101449;-83
2021/05/24 13:34:36;;;;;;;3.90;0.97;;;;;;;20.02;34.96;100543.72;126155;1101;103361;-81
2021/05/24 13:37:24;;;;;;;5.03;1.00;;;;;;;19.92;35.21;100541.66;126183;1101;103109;-80